Time;durP1;ratioP1;P1;durP2;ratioP2;P2;SDS_P1;SDS_P2;PMS_P1;PMS_P2;Temp;Humidity;BMP_temperature;BMP_pressure;BME280_temperature;BME280_humidity;BME280_pressure;Samples;Min_cycle;Max_cycle;Signal;HPM_P1;HPM_P2
2023/12/25 00:00:18;;;;;;;5.03;1.63;;;11.30;99.90;;;;;;5066976;28;20883;-86
2023/12/25 00:03:05;;;;;;;4.00;1.63;;;11.30;99.90;;;;;;5068813;28;20486;-85
2023/12/25 00:05:51;;;;;;;2.57;1.10;;;11.30;99.90;;;;;;5069173;28;20466;-86
2023/12/25 00:08:37;;;;;;;7.70;1.33;;;11.30;99.90;;;;;;5072689;28;20517;-86
2023/12/25 00:11:22;;;;;;;9.83;1.87;;;11.20;99.90;;;;;;5071793;28;20504;-86
2023/12/25 00:14:08;;;;;;;2.70;1.50;;;11.30;99.90;;;;;;5061003;28;20439;-86
2023/12/25 00:16:54;;;;;;;2.40;0.90;;;11.20;99.90;;;;;;5067686;28;20973;-85
2023/12/25 00:19:41;;;;;;;3.40;1.20;;;11.20;99.90;;;;;;5073629;28;20396;-86
2023/12/25 00:22:26;;;;;;;11.83;1.50;;;11.20;99.90;;;;;;5064952;28;20821;-85
2023/12/25 00:25:12;;;;;;;4.13;2.00;;;11.20;99.90;;;;;;5066691;28;20516;-86
2023/12/25 00:27:57;;;;;;;2.80;0.90;;;11.10;99.90;;;;;;5068871;28;20528;-86
2023/12/25 00:30:43;;;;;;;4.37;1.60;;;11.10;99.90;;;;;;5069696;28;20451;-85
2023/12/25 00:33:29;;;;;;;2.70;1.10;;;11.10;99.90;;;;;;5063770;28;20473;-85
2023/12/25 00:36:16;;;;;;;4.37;1.23;;;11.10;99.90;;;;;;5056871;28;20413;-85
2023/12/25 00:39:01;;;;;;;1.93;0.90;;;11.10;99.90;;;;;;5066155;28;20528;-86
2023/12/25 00:41:47;;;;;;;2.07;1.10;;;11.10;99.90;;;;;;5067415;28;20919;-85
2023/12/25 00:44:33;;;;;;;3.87;1.27;;;11.10;99.90;;;;;;5060638;28;20436;-86
2023/12/25 00:47:19;;;;;;;3.00;1.17;;;11.10;99.90;;;;;;5070522;28;20562;-84
2023/12/25 00:50:05;;;;;;;1.90;1.10;;;11.10;99.90;;;;;;5073070;28;20523;-85
2023/12/25 00:52:52;;;;;;;3.60;0.90;;;11.10;99.90;;;;;;5072763;28;20461;-86
2023/12/25 00:55:37;;;;;;;9.60;1.10;;;11.10;99.90;;;;;;5069826;28;20430;-85
2023/12/25 00:58:23;;;;;;;2.70;1.00;;;11.00;99.90;;;;;;5070340;28;20429;-85
2023/12/25 01:01:09;;;;;;;1.93;1.10;;;11.00;99.90;;;;;;5065046;28;20423;-86
2023/12/25 01:03:54;;;;;;;1.50;0.87;;;11.00;99.90;;;;;;5056868;28;20441;-85
2023/12/25 01:06:40;;;;;;;2.20;1.20;;;10.90;99.90;;;;;;5070490;28;20728;-85
2023/12/25 01:09:27;;;;;;;3.20;1.03;;;10.90;99.90;;;;;;5073835;28;20492;-85
2023/12/25 01:12:13;;;;;;;1.83;0.87;;;10.90;99.90;;;;;;5073535;28;21148;-85
2023/12/25 01:14:58;;;;;;;1.80;0.80;;;10.90;99.90;;;;;;5065333;28;20445;-86
2023/12/25 01:17:44;;;;;;;4.10;1.20;;;10.90;99.90;;;;;;5064209;28;20451;-85
2023/12/25 01:20:30;;;;;;;2.33;1.10;;;10.90;99.90;;;;;;5062475;28;20454;-85
2023/12/25 01:23:15;;;;;;;1.80;1.00;;;10.90;99.90;;;;;;5068981;28;20460;-85
2023/12/25 01:26:02;;;;;;;2.17;1.13;;;10.90;99.90;;;;;;5067422;28;20433;-85
2023/12/25 01:28:48;;;;;;;2.13;1.10;;;10.90;99.90;;;;;;5065844;28;20455;-85
2023/12/25 01:31:35;;;;;;;2.00;1.00;;;10.90;99.90;;;;;;5062188;28;20838;-85
2023/12/25 01:34:21;;;;;;;2.73;1.20;;;10.90;99.90;;;;;;5063758;28;20429;-85
2023/12/25 01:37:07;;;;;;;2.43;1.13;;;10.90;99.90;;;;;;5067680;28;20539;-85
2023/12/25 01:39:52;;;;;;;2.07;0.90;;;10.90;99.90;;;;;;5059994;28;20441;-86
2023/12/25 01:42:43;;;;;;;1.80;1.00;;;10.90;99.90;;;;;;5069027;28;20438;-85
2023/12/25 01:45:28;;;;;;;1.90;0.93;;;10.80;99.90;;;;;;5070169;28;20453;-85
2023/12/25 01:48:14;;;;;;;2.30;1.10;;;10.70;99.90;;;;;;5070774;28;20502;-85
2023/12/25 01:51:00;;;;;;;1.40;0.77;;;10.70;99.90;;;;;;5061391;28;20461;-86
2023/12/25 01:53:46;;;;;;;2.83;1.00;;;10.70;99.90;;;;;;5072075;28;20478;-85
2023/12/25 01:56:32;;;;;;;1.60;0.77;;;10.80;99.90;;;;;;5067578;28;20454;-86
2023/12/25 01:59:19;;;;;;;4.40;1.10;;;10.80;99.90;;;;;;5065051;28;20464;-86
2023/12/25 02:02:05;;;;;;;2.63;0.90;;;10.70;99.90;;;;;;5058746;28;20452;-85
2023/12/25 02:04:51;;;;;;;1.30;0.80;;;10.80;99.90;;;;;;5068473;28;20452;-85
2023/12/25 02:07:39;;;;;;;1.80;1.07;;;10.70;99.90;;;;;;5065209;28;20407;-86
2023/12/25 02:10:29;;;;;;;2.13;0.87;;;10.70;99.90;;;;;;5067009;28;20472;-86
2023/12/25 02:13:15;;;;;;;5.50;0.93;;;10.70;99.90;;;;;;5070478;28;20820;-86
2023/12/25 02:16:03;;;;;;;1.93;0.90;;;10.70;99.90;;;;;;5067278;28;20551;-85
2023/12/25 02:18:48;;;;;;;2.90;1.20;;;10.70;99.90;;;;;;5065207;28;20475;-86
2023/12/25 02:21:34;;;;;;;6.07;1.23;;;10.70;99.90;;;;;;5061127;28;20472;-86
2023/12/25 02:24:23;;;;;;;1.77;1.00;;;10.70;99.90;;;;;;5064093;28;20497;-86
2023/12/25 02:27:11;;;;;;;2.33;0.90;;;10.80;99.90;;;;;;5065004;28;20424;-86
2023/12/25 02:29:56;;;;;;;1.30;0.60;;;10.80;99.90;;;;;;5064495;28;20834;-86
2023/12/25 02:32:42;;;;;;;2.90;0.90;;;10.80;99.90;;;;;;5066657;28;20476;-86
2023/12/25 02:35:28;;;;;;;2.90;0.80;;;10.80;99.90;;;;;;5062641;28;20424;-85
2023/12/25 02:38:13;;;;;;;1.50;0.73;;;10.80;99.90;;;;;;5062889;28;20576;-85
2023/12/25 02:40:59;;;;;;;1.60;0.87;;;10.70;99.90;;;;;;5062230;28;20559;-85
2023/12/25 02:43:46;;;;;;;3.00;0.73;;;10.70;99.90;;;;;;5062579;28;20517;-86
2023/12/25 02:46:32;;;;;;;1.70;0.70;;;10.70;99.90;;;;;;5063045;28;20441;-85
2023/12/25 02:49:18;;;;;;;1.47;0.63;;;10.70;99.90;;;;;;5064718;28;20427;-85
2023/12/25 02:52:03;;;;;;;1.40;0.77;;;10.70;99.90;;;;;;5070923;28;20458;-87
2023/12/25 02:54:49;;;;;;;2.87;1.00;;;10.80;99.90;;;;;;5068729;28;20415;-85
2023/12/25 02:57:35;;;;;;;1.97;0.80;;;10.80;99.90;;;;;;5066571;28;20443;-86
2023/12/25 03:00:22;;;;;;;1.30;0.60;;;10.80;99.90;;;;;;5064492;28;20592;-85
2023/12/25 03:03:08;;;;;;;2.00;1.07;;;10.80;99.90;;;;;;5071973;28;20846;-85
2023/12/25 03:05:53;;;;;;;2.83;0.60;;;10.70;99.90;;;;;;5070378;28;20817;-86
2023/12/25 03:08:39;;;;;;;1.33;0.60;;;10.80;99.90;;;;;;5074646;28;20436;-86
2023/12/25 03:11:26;;;;;;;1.50;0.70;;;10.80;99.90;;;;;;5071220;28;20448;-86
2023/12/25 03:14:11;;;;;;;1.80;0.80;;;10.90;99.90;;;;;;5072472;28;20523;-86
2023/12/25 03:16:59;;;;;;;1.67;0.80;;;10.90;99.90;;;;;;5069541;28;20461;-87
2023/12/25 03:19:44;;;;;;;1.20;0.50;;;10.80;99.90;;;;;;5069278;28;20512;-86
2023/12/25 03:22:30;;;;;;;2.43;0.80;;;10.80;99.90;;;;;;5071868;28;20440;-86
2023/12/25 03:25:15;;;;;;;5.53;0.70;;;10.80;99.90;;;;;;5069163;28;20793;-86
2023/12/25 03:28:01;;;;;;;2.40;0.87;;;10.80;99.90;;;;;;5070450;28;20544;-85
2023/12/25 03:30:47;;;;;;;1.67;0.67;;;10.70;99.90;;;;;;5070328;28;20484;-85
2023/12/25 03:33:34;;;;;;;1.50;0.80;;;10.80;99.90;;;;;;5072597;28;20459;-87
2023/12/25 03:36:20;;;;;;;1.40;0.70;;;10.70;99.90;;;;;;5071916;28;20799;-85
2023/12/25 03:39:06;;;;;;;1.53;0.63;;;10.70;99.90;;;;;;5071750;28;20432;-86
2023/12/25 03:41:52;;;;;;;1.30;0.60;;;10.70;99.90;;;;;;5073646;28;20450;-86
2023/12/25 03:44:38;;;;;;;2.43;0.60;;;10.80;99.90;;;;;;5070913;28;20925;-85
2023/12/25 03:47:23;;;;;;;2.13;0.70;;;10.70;99.90;;;;;;5072520;28;21059;-86
2023/12/25 03:50:11;;;;;;;1.10;0.50;;;10.70;99.90;;;;;;5065511;28;20460;-86
2023/12/25 03:52:56;;;;;;;2.27;0.80;;;10.80;99.90;;;;;;5070282;28;20461;-86
2023/12/25 03:55:42;;;;;;;1.20;0.50;;;10.80;99.90;;;;;;5069290;28;20947;-86
2023/12/25 03:58:28;;;;;;;3.30;0.63;;;10.70;99.90;;;;;;5067991;28;20551;-86
2023/12/25 04:01:15;;;;;;;1.20;0.60;;;10.80;99.90;;;;;;5046171;28;20853;-86
2023/12/25 04:04:00;;;;;;;1.70;0.87;;;10.80;99.90;;;;;;5067208;28;20450;-86
2023/12/25 04:06:47;;;;;;;1.80;0.60;;;10.90;99.90;;;;;;5065507;28;20446;-86
2023/12/25 04:09:33;;;;;;;1.97;0.63;;;10.90;99.90;;;;;;5071485;28;20429;-86
2023/12/25 04:12:19;;;;;;;2.23;0.63;;;10.90;99.90;;;;;;5070516;28;20525;-86
2023/12/25 04:15:07;;;;;;;1.30;0.50;;;10.90;99.90;;;;;;5068226;28;20421;-85
2023/12/25 04:17:53;;;;;;;1.17;0.50;;;10.90;99.90;;;;;;5067568;28;20839;-86
2023/12/25 04:20:39;;;;;;;1.57;0.60;;;10.80;99.90;;;;;;5070365;28;20527;-86
2023/12/25 04:23:26;;;;;;;1.37;0.67;;;10.80;99.90;;;;;;5072441;28;20423;-86
2023/12/25 04:26:12;;;;;;;3.57;0.87;;;10.80;99.90;;;;;;5067533;28;20862;-86
2023/12/25 04:28:57;;;;;;;1.40;0.70;;;10.80;99.90;;;;;;5071257;28;20404;-86
2023/12/25 04:31:43;;;;;;;1.40;0.60;;;10.80;99.90;;;;;;5067914;28;20456;-86
2023/12/25 04:34:29;;;;;;;1.70;0.70;;;10.80;99.90;;;;;;5065392;28;20586;-86
2023/12/25 04:37:15;;;;;;;1.40;0.60;;;10.80;99.90;;;;;;5065750;28;20418;-86
2023/12/25 04:40:02;;;;;;;1.80;0.77;;;10.70;99.90;;;;;;5068609;28;20446;-86
2023/12/25 04:42:48;;;;;;;1.50;0.87;;;10.80;99.90;;;;;;5071045;28;20400;-86
2023/12/25 04:45:33;;;;;;;1.30;0.50;;;10.80;99.90;;;;;;5064375;28;20457;-86
2023/12/25 04:48:19;;;;;;;2.23;0.60;;;10.70;99.90;;;;;;5067741;28;20486;-86
2023/12/25 04:51:05;;;;;;;1.40;0.60;;;10.70;99.90;;;;;;5066412;28;20456;-86
2023/12/25 04:53:51;;;;;;;2.80;0.70;;;10.80;99.90;;;;;;5071461;28;20481;-86
2023/12/25 04:56:38;;;;;;;1.40;0.67;;;10.80;99.90;;;;;;5066328;28;20420;-86
2023/12/25 04:59:24;;;;;;;1.20;0.53;;;10.70;99.90;;;;;;5069253;28;20431;-86
2023/12/25 05:02:10;;;;;;;1.53;0.70;;;10.70;99.90;;;;;;5064858;28;20466;-86
2023/12/25 05:04:55;;;;;;;1.10;0.50;;;10.80;99.90;;;;;;5067976;28;20457;-85
2023/12/25 05:07:41;;;;;;;1.37;0.57;;;10.70;99.90;;;;;;5067153;28;20423;-87
2023/12/25 05:10:27;;;;;;;1.30;0.50;;;10.70;99.90;;;;;;5066739;28;20815;-86
2023/12/25 05:13:14;;;;;;;1.10;0.60;;;10.80;99.90;;;;;;5064895;28;20448;-86
2023/12/25 05:15:59;;;;;;;1.20;0.50;;;10.80;99.90;;;;;;5063258;28;20599;-85
2023/12/25 05:18:45;;;;;;;2.50;0.87;;;10.80;99.90;;;;;;5068762;28;20420;-86
2023/12/25 05:21:31;;;;;;;1.30;0.60;;;10.80;99.90;;;;;;5067905;28;20476;-85
2023/12/25 05:24:16;;;;;;;2.23;1.20;;;10.70;99.90;;;;;;5070425;28;20802;-85
2023/12/25 05:27:02;;;;;;;1.30;0.50;;;10.70;99.90;;;;;;5067846;28;20504;-85
2023/12/25 05:29:50;;;;;;;1.20;0.47;;;10.70;99.90;;;;;;5067610;28;20457;-86
2023/12/25 05:32:36;;;;;;;1.73;0.60;;;10.70;99.90;;;;;;5070707;28;20440;-86
2023/12/25 05:35:21;;;;;;;1.20;0.70;;;10.80;99.90;;;;;;5069586;28;20468;-86
2023/12/25 05:38:07;;;;;;;1.33;0.77;;;10.80;99.90;;;;;;5064876;28;20466;-85
2023/12/25 05:40:52;;;;;;;2.43;0.60;;;10.70;99.90;;;;;;5067146;28;20472;-86
2023/12/25 05:43:38;;;;;;;2.27;0.80;;;10.70;99.90;;;;;;5062910;28;20423;-85
2023/12/25 05:46:25;;;;;;;3.20;0.70;;;10.60;99.90;;;;;;5067973;28;20453;-86
2023/12/25 05:49:11;;;;;;;1.20;0.50;;;10.50;99.90;;;;;;5068153;28;20826;-85
2023/12/25 05:51:57;;;;;;;1.53;0.70;;;10.50;99.90;;;;;;5068112;28;20566;-85
2023/12/25 05:54:43;;;;;;;1.20;0.60;;;10.60;99.90;;;;;;5063299;28;20474;-86
2023/12/25 05:57:28;;;;;;;1.87;0.57;;;10.50;99.90;;;;;;5068122;28;20960;-86
2023/12/25 06:00:15;;;;;;;1.60;0.70;;;10.60;99.90;;;;;;5064398;28;20624;-86
2023/12/25 06:03:03;;;;;;;1.40;0.70;;;10.50;99.90;;;;;;5066479;28;20457;-85
2023/12/25 06:05:48;;;;;;;1.50;0.70;;;10.50;99.90;;;;;;5066213;28;20551;-86
2023/12/25 06:08:35;;;;;;;2.37;0.70;;;10.50;99.90;;;;;;5066155;28;20547;-85
2023/12/25 06:11:20;;;;;;;3.60;0.80;;;10.50;99.90;;;;;;5064672;28;20825;-85
2023/12/25 06:14:07;;;;;;;2.30;0.80;;;10.50;99.90;;;;;;5063029;28;20486;-85
2023/12/25 06:16:52;;;;;;;1.40;0.63;;;10.50;99.90;;;;;;5064572;28;20454;-86
2023/12/25 06:19:40;;;;;;;1.23;0.60;;;10.50;99.90;;;;;;5063869;28;20989;-86
2023/12/25 06:22:26;;;;;;;1.63;0.70;;;10.50;99.90;;;;;;5066459;28;20568;-85
2023/12/25 06:25:11;;;;;;;1.47;0.63;;;10.60;99.90;;;;;;5072397;28;20530;-85
2023/12/25 06:27:57;;;;;;;1.43;0.63;;;10.50;99.90;;;;;;5071785;28;21009;-86
2023/12/25 06:30:43;;;;;;;1.30;0.60;;;10.50;99.90;;;;;;5068887;28;20972;-86
2023/12/25 06:33:28;;;;;;;1.67;0.70;;;10.50;99.90;;;;;;5068747;28;20519;-86
2023/12/25 06:36:15;;;;;;;2.03;0.87;;;10.60;99.90;;;;;;5068430;28;20975;-86
2023/12/25 06:39:01;;;;;;;1.17;0.63;;;10.60;99.90;;;;;;5066698;28;20453;-86
2023/12/25 06:41:47;;;;;;;2.70;1.03;;;10.50;99.90;;;;;;5067783;28;20444;-86
2023/12/25 06:44:34;;;;;;;6.43;0.87;;;10.50;99.90;;;;;;5064597;28;20822;-86
2023/12/25 06:47:20;;;;;;;1.90;0.97;;;10.50;99.90;;;;;;5072074;28;20426;-86
2023/12/25 06:50:06;;;;;;;2.40;1.00;;;10.50;99.90;;;;;;5065338;28;21523;-86
2023/12/25 06:52:53;;;;;;;1.40;0.77;;;10.40;99.90;;;;;;5067483;28;20423;-86
2023/12/25 06:55:39;;;;;;;1.27;0.60;;;10.40;99.90;;;;;;5071650;28;20419;-86
2023/12/25 06:58:24;;;;;;;1.70;0.93;;;10.30;99.90;;;;;;5072498;28;20470;-86
2023/12/25 07:01:10;;;;;;;2.37;0.80;;;10.30;99.90;;;;;;5069855;28;20506;-86
2023/12/25 07:03:56;;;;;;;2.47;1.03;;;10.20;99.90;;;;;;5067498;28;20785;-87
2023/12/25 07:06:41;;;;;;;1.70;0.90;;;10.20;99.90;;;;;;5069241;28;20474;-86
2023/12/25 07:09:29;;;;;;;2.80;2.20;;;10.10;99.90;;;;;;5069318;28;20584;-86
2023/12/25 07:12:14;;;;;;;2.00;1.27;;;10.10;99.90;;;;;;5072543;28;20498;-85
2023/12/25 07:15:00;;;;;;;1.93;1.10;;;10.20;99.90;;;;;;5071622;28;20496;-87
2023/12/25 07:17:46;;;;;;;6.90;1.37;;;10.20;99.90;;;;;;5066160;28;20524;-86
2023/12/25 07:20:32;;;;;;;2.17;1.57;;;10.10;99.90;;;;;;5069090;28;20491;-86
2023/12/25 07:23:18;;;;;;;3.37;1.37;;;10.10;99.90;;;;;;5074681;28;20558;-86
2023/12/25 07:26:06;;;;;;;7.43;1.40;;;10.10;99.90;;;;;;5070465;28;20497;-86
2023/12/25 07:28:52;;;;;;;3.27;1.30;;;10.10;99.90;;;;;;5067846;28;20441;-86
2023/12/25 07:31:37;;;;;;;2.40;1.10;;;10.20;99.90;;;;;;5069224;28;20473;-85
2023/12/25 07:34:23;;;;;;;3.43;1.43;;;10.20;99.90;;;;;;5070007;28;20464;-86
2023/12/25 07:37:09;;;;;;;2.10;1.23;;;10.20;99.90;;;;;;5069453;28;20975;-85
2023/12/25 07:39:55;;;;;;;1.70;1.03;;;10.20;99.90;;;;;;5072434;28;20519;-86
2023/12/25 07:42:41;;;;;;;5.73;1.77;;;10.30;99.90;;;;;;5074557;28;20445;-85
2023/12/25 07:45:27;;;;;;;3.60;1.50;;;10.20;99.90;;;;;;5070648;28;20441;-85
2023/12/25 07:48:13;;;;;;;3.10;1.20;;;10.20;99.90;;;;;;5071212;28;20454;-86
2023/12/25 07:50:58;;;;;;;1.97;1.30;;;10.20;99.90;;;;;;5069551;28;20451;-86
2023/12/25 07:53:44;;;;;;;2.83;1.40;;;10.20;99.90;;;;;;5073722;28;20454;-86
2023/12/25 07:56:30;;;;;;;2.10;1.20;;;10.20;99.90;;;;;;5071143;28;20817;-85
2023/12/25 07:59:21;;;;;;;4.00;1.20;;;10.10;99.90;;;;;;5071773;28;20459;-84
2023/12/25 08:02:07;;;;;;;3.90;1.40;;;10.10;99.90;;;;;;5067015;28;20503;-85
2023/12/25 08:04:52;;;;;;;4.33;1.60;;;10.10;99.90;;;;;;5070627;28;20412;-87
2023/12/25 08:07:38;;;;;;;3.80;1.33;;;10.00;99.90;;;;;;5062356;28;20531;-86
2023/12/25 08:10:24;;;;;;;1.70;1.10;;;10.00;99.90;;;;;;5067441;28;20431;-87
2023/12/25 08:13:09;;;;;;;4.30;1.50;;;10.00;99.90;;;;;;5064350;28;20463;-85
2023/12/25 08:15:56;;;;;;;4.23;1.40;;;10.00;99.90;;;;;;5066058;28;20481;-86
2023/12/25 08:18:42;;;;;;;2.93;1.27;;;10.00;99.90;;;;;;5069161;28;20955;-89
2023/12/25 08:21:27;;;;;;;3.60;1.33;;;10.00;99.90;;;;;;5065373;28;20623;-87
2023/12/25 08:24:13;;;;;;;4.70;1.10;;;9.90;99.90;;;;;;5069466;28;20507;-86
2023/12/25 08:26:59;;;;;;;1.90;1.10;;;9.90;99.90;;;;;;5064482;28;20647;-85
2023/12/25 08:29:45;;;;;;;4.20;1.67;;;9.90;99.90;;;;;;5067339;28;20458;-85
2023/12/25 08:32:32;;;;;;;4.17;1.30;;;9.90;99.90;;;;;;5067186;28;20938;-84
2023/12/25 08:35:17;;;;;;;3.77;1.27;;;9.90;99.90;;;;;;5067587;28;20476;-85
2023/12/25 08:38:04;;;;;;;3.40;1.50;;;10.00;99.90;;;;;;5066683;28;20448;-85
2023/12/25 08:40:50;;;;;;;2.63;1.33;;;9.90;99.90;;;;;;5066278;28;20474;-89
2023/12/25 08:43:36;;;;;;;3.80;1.50;;;9.90;99.90;;;;;;5069237;28;20478;-84
2023/12/25 08:46:22;;;;;;;8.07;1.57;;;9.90;99.90;;;;;;5063716;28;20526;-85
2023/12/25 08:49:08;;;;;;;3.43;1.73;;;10.00;99.90;;;;;;5069283;28;21002;-85
2023/12/25 08:51:54;;;;;;;6.13;1.80;;;9.90;99.90;;;;;;5062842;28;20862;-85
2023/12/25 08:54:40;;;;;;;8.57;2.03;;;9.90;99.90;;;;;;5067865;28;20567;-84
2023/12/25 08:57:25;;;;;;;3.43;1.77;;;9.90;99.90;;;;;;5068354;28;20499;-85
2023/12/25 09:00:12;;;;;;;3.47;1.70;;;9.90;99.90;;;;;;5064768;28;20542;-87
2023/12/25 09:02:57;;;;;;;4.50;1.80;;;9.90;99.90;;;;;;5065949;28;20535;-86
2023/12/25 09:05:44;;;;;;;3.13;1.73;;;9.90;99.90;;;;;;5065138;28;20449;-86
2023/12/25 09:08:30;;;;;;;3.43;1.83;;;9.90;99.90;;;;;;5068376;28;20451;-87
2023/12/25 09:11:16;;;;;;;3.87;1.00;;;9.90;99.90;;;;;;5064240;28;20476;-85
2023/12/25 09:14:03;;;;;;;4.00;1.20;;;9.90;99.90;;;;;;5065937;28;20983;-86
2023/12/25 09:16:49;;;;;;;5.13;1.20;;;9.90;99.90;;;;;;5065009;28;20914;-85
2023/12/25 09:19:34;;;;;;;7.73;1.20;;;10.00;99.90;;;;;;5063738;28;20796;-85
2023/12/25 09:22:23;;;;;;;2.00;1.10;;;10.00;99.90;;;;;;5070277;28;20449;-86
2023/12/25 09:25:09;;;;;;;6.73;1.33;;;10.00;99.90;;;;;;5065136;28;20885;-86
2023/12/25 09:27:55;;;;;;;6.23;1.33;;;10.00;99.90;;;;;;5062177;28;20457;-85
2023/12/25 09:30:41;;;;;;;5.97;1.70;;;10.10;99.90;;;;;;5061818;28;20956;-85
2023/12/25 09:33:26;;;;;;;3.30;1.53;;;10.10;99.90;;;;;;5063887;28;20445;-85
2023/12/25 09:36:12;;;;;;;2.47;1.17;;;10.10;99.90;;;;;;5062275;28;20476;-85
2023/12/25 09:38:59;;;;;;;3.40;1.30;;;10.10;99.90;;;;;;5066256;28;20414;-85
2023/12/25 09:41:45;;;;;;;2.67;1.20;;;10.20;99.90;;;;;;5067607;28;20465;-86
2023/12/25 09:44:31;;;;;;;3.10;1.47;;;10.20;99.90;;;;;;5063281;28;20425;-86
2023/12/25 09:47:19;;;;;;;2.23;1.20;;;10.20;99.90;;;;;;5062590;28;20421;-85
2023/12/25 09:50:05;;;;;;;3.70;1.30;;;10.30;99.90;;;;;;5061158;28;20453;-86
2023/12/25 09:52:51;;;;;;;2.17;1.20;;;10.30;99.90;;;;;;5062936;28;20436;-85
2023/12/25 09:55:38;;;;;;;2.17;1.20;;;10.40;99.90;;;;;;5066939;28;20819;-85
2023/12/25 09:58:24;;;;;;;2.33;1.13;;;10.30;99.90;;;;;;5065411;28;20422;-84
2023/12/25 10:01:10;;;;;;;1.93;1.23;;;10.30;99.90;;;;;;5065995;28;20516;-84
2023/12/25 10:03:56;;;;;;;3.50;1.30;;;10.30;99.90;;;;;;5055775;28;20455;-84
2023/12/25 10:06:43;;;;;;;3.40;1.43;;;10.30;99.90;;;;;;5059293;28;20453;-86
2023/12/25 10:09:29;;;;;;;3.30;1.37;;;10.30;99.90;;;;;;5062625;28;20459;-83
2023/12/25 10:12:18;;;;;;;4.50;1.17;;;10.30;99.90;;;;;;5067652;28;20475;-84
2023/12/25 10:15:06;;;;;;;4.63;1.63;;;10.30;99.90;;;;;;5063304;28;20834;-82
2023/12/25 10:18:02;;;;;;;2.47;1.40;;;10.20;99.90;;;;;;5062794;28;20433;-82
2023/12/25 10:20:57;;;;;;;2.40;1.20;;;10.20;99.90;;;;;;5067795;28;20860;-83
2023/12/25 10:23:44;;;;;;;2.90;1.20;;;10.20;99.90;;;;;;5063989;28;20465;-84
2023/12/25 10:26:29;;;;;;;2.10;1.00;;;10.20;99.90;;;;;;5067469;28;20422;-83
2023/12/25 10:29:17;;;;;;;3.50;1.27;;;10.20;99.90;;;;;;5063092;28;20484;-83
2023/12/25 10:32:18;;;;;;;4.90;1.67;;;10.20;99.90;;;;;;5064938;28;20476;-83
2023/12/25 10:35:11;;;;;;;3.20;1.43;;;10.10;99.90;;;;;;5068822;28;20496;-86
2023/12/25 10:37:57;;;;;;;3.50;1.20;;;10.10;99.90;;;;;;5065709;28;20445;-85
2023/12/25 10:40:42;;;;;;;5.27;1.20;;;10.10;99.90;;;;;;5067896;28;20519;-87
2023/12/25 10:43:28;;;;;;;8.20;1.40;;;10.10;99.90;;;;;;5063784;28;20505;-85
2023/12/25 10:46:17;;;;;;;3.37;1.47;;;10.10;99.90;;;;;;5066219;28;20410;-86
2023/12/25 10:49:04;;;;;;;3.30;1.50;;;10.00;99.90;;;;;;5066404;28;20423;-85
2023/12/25 10:51:50;;;;;;;3.30;1.30;;;10.00;99.90;;;;;;5067957;28;20623;-85
2023/12/25 10:54:37;;;;;;;2.20;1.20;;;10.00;99.90;;;;;;5065908;28;20517;-85
2023/12/25 10:57:24;;;;;;;2.37;1.40;;;10.00;99.90;;;;;;5069130;28;20435;-84
2023/12/25 11:00:12;;;;;;;2.53;1.20;;;10.10;99.90;;;;;;5065936;28;20424;-84
2023/12/25 11:03:03;;;;;;;2.27;1.20;;;10.10;99.90;;;;;;5062976;28;20822;-84
2023/12/25 11:05:49;;;;;;;2.13;1.10;;;10.10;99.90;;;;;;5061261;28;20972;-84
2023/12/25 11:08:36;;;;;;;1.90;1.50;;;10.00;99.90;;;;;;5064181;28;20448;-84
2023/12/25 11:11:23;;;;;;;2.20;1.30;;;10.00;99.90;;;;;;5062751;28;20614;-84
2023/12/25 11:14:09;;;;;;;2.63;1.70;;;10.00;99.90;;;;;;5064304;28;20454;-84
2023/12/25 11:16:56;;;;;;;3.70;1.50;;;10.00;99.90;;;;;;5063331;28;20493;-84
2023/12/25 11:19:43;;;;;;;2.70;1.60;;;9.90;99.90;;;;;;5061776;28;21008;-84
2023/12/25 11:22:30;;;;;;;2.37;1.43;;;9.80;99.90;;;;;;5063854;28;20453;-84
2023/12/25 11:25:17;;;;;;;2.77;1.40;;;9.90;99.90;;;;;;5069215;28;20425;-84
2023/12/25 11:28:05;;;;;;;2.43;1.40;;;9.80;99.90;;;;;;5069451;28;20826;-85
2023/12/25 11:30:51;;;;;;;6.43;2.60;;;9.80;99.90;;;;;;5064981;28;20949;-85
2023/12/25 11:33:44;;;;;;;3.40;1.40;;;9.80;99.90;;;;;;5066332;28;20446;-85
2023/12/25 11:36:31;;;;;;;2.00;1.43;;;9.80;99.90;;;;;;5072127;28;20455;-83
2023/12/25 11:39:17;;;;;;;2.13;1.33;;;9.80;99.90;;;;;;5071304;28;20448;-85
2023/12/25 11:42:03;;;;;;;2.50;1.60;;;9.60;99.90;;;;;;5070228;28;21016;-84
2023/12/25 11:44:49;;;;;;;2.27;1.30;;;9.60;99.90;;;;;;5066973;28;20457;-86
2023/12/25 11:47:47;;;;;;;2.47;1.40;;;9.60;99.90;;;;;;5069965;28;20498;-86
2023/12/25 11:50:33;;;;;;;2.93;1.50;;;9.60;99.90;;;;;;5069032;28;20999;-87
2023/12/25 11:53:38;;;;;;;1.90;1.40;;;9.60;99.90;;;;;;5064429;28;20594;-86
2023/12/25 11:56:25;;;;;;;1.77;1.20;;;9.60;99.90;;;;;;5068769;28;20455;-86
2023/12/25 11:59:10;;;;;;;3.00;1.60;;;9.60;99.90;;;;;;5068877;28;20481;-85
2023/12/25 12:01:56;;;;;;;2.63;1.73;;;9.60;99.90;;;;;;5062304;28;20496;-85
2023/12/25 12:04:42;;;;;;;2.63;1.67;;;9.50;99.90;;;;;;5065306;28;20499;-86
2023/12/25 12:07:28;;;;;;;2.40;1.30;;;9.50;99.90;;;;;;5062416;28;20441;-86
2023/12/25 12:10:15;;;;;;;6.20;1.87;;;9.40;99.90;;;;;;5067808;28;20474;-86
2023/12/25 12:13:01;;;;;;;1.40;1.00;;;9.40;99.90;;;;;;5066419;28;20444;-85
2023/12/25 12:15:47;;;;;;;2.47;1.30;;;9.40;99.90;;;;;;5066671;28;20474;-86
2023/12/25 12:18:32;;;;;;;2.10;1.20;;;9.40;99.90;;;;;;5060918;28;20527;-86
2023/12/25 12:21:18;;;;;;;2.10;1.50;;;9.40;99.90;;;;;;5063744;28;20456;-86
2023/12/25 12:24:04;;;;;;;2.33;1.60;;;9.40;99.90;;;;;;5069137;28;20453;-86
2023/12/25 12:26:51;;;;;;;2.50;1.63;;;9.50;99.90;;;;;;5067455;28;20555;-86
2023/12/25 12:29:37;;;;;;;2.40;1.73;;;9.40;99.90;;;;;;5068622;28;20427;-86
2023/12/25 12:32:23;;;;;;;2.87;1.70;;;9.50;99.90;;;;;;5064184;28;20519;-86
2023/12/25 12:35:10;;;;;;;1.70;1.20;;;9.40;99.90;;;;;;5068989;28;20469;-85
2023/12/25 12:37:56;;;;;;;3.60;1.70;;;9.50;99.90;;;;;;5068591;28;20423;-86
2023/12/25 12:40:42;;;;;;;3.67;1.53;;;9.40;99.90;;;;;;5070559;28;20552;-85
2023/12/25 12:43:29;;;;;;;1.93;1.27;;;9.50;99.90;;;;;;5065940;28;20424;-85
2023/12/25 12:46:16;;;;;;;2.70;1.50;;;9.40;99.90;;;;;;5065968;28;20991;-86
2023/12/25 12:49:02;;;;;;;2.10;1.53;;;9.50;99.90;;;;;;5070124;28;20592;-85
2023/12/25 12:51:47;;;;;;;2.20;1.30;;;9.50;99.90;;;;;;5062111;28;21189;-86
2023/12/25 12:54:33;;;;;;;1.93;1.30;;;9.50;99.90;;;;;;5072110;28;20503;-86
2023/12/25 12:57:19;;;;;;;2.03;1.30;;;9.50;99.90;;;;;;5071722;28;20500;-85
2023/12/25 13:00:07;;;;;;;3.90;1.97;;;9.50;99.90;;;;;;5072311;28;20408;-85
2023/12/25 13:02:57;;;;;;;1.70;1.23;;;9.50;99.90;;;;;;5065357;28;20421;-86
2023/12/25 13:05:43;;;;;;;2.20;1.30;;;9.50;99.90;;;;;;5065554;28;21041;-87
2023/12/25 13:08:29;;;;;;;1.77;1.17;;;9.60;99.90;;;;;;5075556;28;20496;-86
2023/12/25 13:11:15;;;;;;;1.60;1.03;;;9.60;99.90;;;;;;5073878;28;20962;-86
2023/12/25 13:14:00;;;;;;;2.00;1.30;;;9.70;99.90;;;;;;5069312;28;20433;-86
2023/12/25 13:16:47;;;;;;;2.77;1.60;;;9.70;99.90;;;;;;5068207;28;20489;-86
2023/12/25 13:19:33;;;;;;;3.10;1.40;;;9.70;99.90;;;;;;5065785;28;20456;-87
2023/12/25 13:22:19;;;;;;;1.80;1.27;;;9.70;99.90;;;;;;5066910;28;20815;-88
2023/12/25 13:25:05;;;;;;;1.93;1.60;;;9.70;99.90;;;;;;5064513;28;20429;-86
2023/12/25 13:27:51;;;;;;;2.20;1.27;;;9.70;99.90;;;;;;5058490;28;20457;-85
2023/12/25 13:30:37;;;;;;;3.10;1.37;;;9.80;99.90;;;;;;5069466;28;20460;-85
2023/12/25 13:33:24;;;;;;;2.53;1.50;;;9.70;99.90;;;;;;5066224;28;20555;-86
2023/12/25 13:36:11;;;;;;;2.30;1.30;;;9.70;99.90;;;;;;5066745;28;20473;-86
2023/12/25 13:38:56;;;;;;;3.80;1.20;;;9.80;99.90;;;;;;5068687;28;20566;-86
2023/12/25 13:41:42;;;;;;;2.83;1.70;;;9.80;99.90;;;;;;5064180;28;20445;-86
2023/12/25 13:44:29;;;;;;;2.10;1.40;;;9.80;99.90;;;;;;5066895;28;20797;-85
2023/12/25 13:47:15;;;;;;;2.23;1.10;;;9.80;99.90;;;;;;5064065;28;20472;-85
2023/12/25 13:50:03;;;;;;;2.57;1.70;;;9.90;99.90;;;;;;5063415;28;20932;-86
2023/12/25 13:52:48;;;;;;;2.40;1.63;;;9.90;99.90;;;;;;5072099;28;20421;-85
2023/12/25 13:55:34;;;;;;;3.10;1.63;;;9.80;99.90;;;;;;5068059;28;20527;-84
2023/12/25 13:58:19;;;;;;;2.27;1.47;;;9.90;99.90;;;;;;5071481;28;20429;-86
2023/12/25 14:01:05;;;;;;;2.53;1.57;;;9.90;99.90;;;;;;5070456;28;20505;-86
2023/12/25 14:03:51;;;;;;;2.50;1.20;;;9.90;99.90;;;;;;5066813;28;20934;-86
2023/12/25 14:06:38;;;;;;;3.50;1.30;;;9.90;99.90;;;;;;5068707;28;20555;-86
2023/12/25 14:09:23;;;;;;;2.00;1.30;;;9.80;99.90;;;;;;5071036;28;20510;-85
2023/12/25 14:12:09;;;;;;;2.13;1.33;;;9.90;99.90;;;;;;5062118;28;20470;-85
2023/12/25 14:14:54;;;;;;;3.53;1.20;;;9.90;99.90;;;;;;5065308;28;20450;-86
2023/12/25 14:17:40;;;;;;;2.30;1.10;;;9.90;99.90;;;;;;5069733;28;20450;-85
2023/12/25 14:20:26;;;;;;;2.10;1.27;;;9.90;99.90;;;;;;5062703;28;20545;-86
2023/12/25 14:23:13;;;;;;;2.70;1.23;;;9.90;99.90;;;;;;5068033;28;20474;-86
2023/12/25 14:25:59;;;;;;;2.00;1.40;;;9.90;99.90;;;;;;5066923;28;21067;-85
2023/12/25 14:28:44;;;;;;;1.67;1.20;;;9.90;99.90;;;;;;5062949;28;20445;-85